sensor_id;sensor_type;location;lat;lon;timestamp;P1;durP1;ratioP1;P2;durP2;ratioP2
19621;SDS011;9958;33.196;-97.114;2023-11-21T00:02:07;1.80;;;1.65;;
19621;SDS011;9958;33.196;-97.114;2023-11-21T00:04:37;1.30;;;1.20;;
19621;SDS011;9958;33.196;-97.114;2023-11-21T00:07:05;2.55;;;1.02;;
19621;SDS011;9958;33.196;-97.114;2023-11-21T00:09:34;1.00;;;1.00;;
19621;SDS011;9958;33.196;-97.114;2023-11-21T00:12:02;1.65;;;1.00;;
19621;SDS011;9958;33.196;-97.114;2023-11-21T00:14:31;1.00;;;1.00;;
19621;SDS011;9958;33.196;-97.114;2023-11-21T00:16:59;1.13;;;0.98;;
19621;SDS011;9958;33.196;-97.114;2023-11-21T00:19:28;1.10;;;1.00;;
19621;SDS011;9958;33.196;-97.114;2023-11-21T00:21:58;1.50;;;0.95;;
19621;SDS011;9958;33.196;-97.114;2023-11-21T00:24:26;1.00;;;1.00;;
19621;SDS011;9958;33.196;-97.114;2023-11-21T00:26:54;1.25;;;1.15;;
19621;SDS011;9958;33.196;-97.114;2023-11-21T00:29:23;0.80;;;0.80;;
19621;SDS011;9958;33.196;-97.114;2023-11-21T00:31:51;0.70;;;0.70;;
19621;SDS011;9958;33.196;-97.114;2023-11-21T00:34:19;0.90;;;0.73;;
19621;SDS011;9958;33.196;-97.114;2023-11-21T00:36:48;0.98;;;0.80;;
19621;SDS011;9958;33.196;-97.114;2023-11-21T00:39:17;0.60;;;0.60;;
19621;SDS011;9958;33.196;-97.114;2023-11-21T00:41:46;0.57;;;0.55;;
19621;SDS011;9958;33.196;-97.114;2023-11-21T00:44:14;0.35;;;0.35;;
19621;SDS011;9958;33.196;-97.114;2023-11-21T00:46:43;0.50;;;0.50;;
19621;SDS011;9958;33.196;-97.114;2023-11-21T00:49:11;0.63;;;0.63;;
19621;SDS011;9958;33.196;-97.114;2023-11-21T00:51:40;0.57;;;0.57;;
19621;SDS011;9958;33.196;-97.114;2023-11-21T00:54:08;0.45;;;0.45;;
19621;SDS011;9958;33.196;-97.114;2023-11-21T00:56:38;0.45;;;0.45;;
19621;SDS011;9958;33.196;-97.114;2023-11-21T00:59:07;0.50;;;0.50;;
19621;SDS011;9958;33.196;-97.114;2023-11-21T01:01:36;0.60;;;0.60;;
19621;SDS011;9958;33.196;-97.114;2023-11-21T01:04:05;1.40;;;0.50;;
19621;SDS011;9958;33.196;-97.114;2023-11-21T01:06:33;1.23;;;0.80;;
19621;SDS011;9958;33.196;-97.114;2023-11-21T01:09:01;1.48;;;0.52;;
19621;SDS011;9958;33.196;-97.114;2023-11-21T01:11:33;1.00;;;0.85;;
19621;SDS011;9958;33.196;-97.114;2023-11-21T01:14:04;0.30;;;0.30;;
19621;SDS011;9958;33.196;-97.114;2023-11-21T01:16:34;0.85;;;0.35;;
19621;SDS011;9958;33.196;-97.114;2023-11-21T01:19:02;1.00;;;0.28;;
19621;SDS011;9958;33.196;-97.114;2023-11-21T01:21:31;0.30;;;0.30;;
19621;SDS011;9958;33.196;-97.114;2023-11-21T01:23:59;0.30;;;0.30;;
19621;SDS011;9958;33.196;-97.114;2023-11-21T01:26:28;4.20;;;0.38;;
19621;SDS011;9958;33.196;-97.114;2023-11-21T01:28:56;0.40;;;0.40;;
19621;SDS011;9958;33.196;-97.114;2023-11-21T01:31:26;0.22;;;0.22;;
19621;SDS011;9958;33.196;-97.114;2023-11-21T01:33:55;0.50;;;0.50;;
19621;SDS011;9958;33.196;-97.114;2023-11-21T01:36:29;0.35;;;0.35;;
19621;SDS011;9958;33.196;-97.114;2023-11-21T01:38:59;0.40;;;0.40;;
19621;SDS011;9958;33.196;-97.114;2023-11-21T01:41:33;0.20;;;0.20;;
19621;SDS011;9958;33.196;-97.114;2023-11-21T01:44:02;0.30;;;0.30;;
19621;SDS011;9958;33.196;-97.114;2023-11-21T01:46:34;0.30;;;0.30;;
19621;SDS011;9958;33.196;-97.114;2023-11-21T01:49:03;0.20;;;0.20;;
19621;SDS011;9958;33.196;-97.114;2023-11-21T01:51:32;1.38;;;0.40;;
19621;SDS011;9958;33.196;-97.114;2023-11-21T01:54:01;0.30;;;0.30;;
19621;SDS011;9958;33.196;-97.114;2023-11-21T01:56:31;0.30;;;0.30;;
19621;SDS011;9958;33.196;-97.114;2023-11-21T01:59:00;0.20;;;0.20;;
19621;SDS011;9958;33.196;-97.114;2023-11-21T02:01:28;0.40;;;0.40;;
19621;SDS011;9958;33.196;-97.114;2023-11-21T02:03:59;0.43;;;0.43;;
19621;SDS011;9958;33.196;-97.114;2023-11-21T02:06:27;0.52;;;0.38;;
19621;SDS011;9958;33.196;-97.114;2023-11-21T02:08:56;0.28;;;0.28;;
19621;SDS011;9958;33.196;-97.114;2023-11-21T02:11:25;0.30;;;0.30;;
19621;SDS011;9958;33.196;-97.114;2023-11-21T02:13:53;0.40;;;0.40;;
19621;SDS011;9958;33.196;-97.114;2023-11-21T02:16:22;1.10;;;0.38;;
19621;SDS011;9958;33.196;-97.114;2023-11-21T02:18:50;0.28;;;0.28;;
19621;SDS011;9958;33.196;-97.114;2023-11-21T02:21:21;0.20;;;0.20;;
19621;SDS011;9958;33.196;-97.114;2023-11-21T02:23:51;0.50;;;0.40;;
19621;SDS011;9958;33.196;-97.114;2023-11-21T02:26:20;0.40;;;0.40;;
19621;SDS011;9958;33.196;-97.114;2023-11-21T02:28:49;0.30;;;0.30;;
19621;SDS011;9958;33.196;-97.114;2023-11-21T02:31:18;0.25;;;0.25;;
19621;SDS011;9958;33.196;-97.114;2023-11-21T02:33:48;0.38;;;0.38;;
19621;SDS011;9958;33.196;-97.114;2023-11-21T02:36:16;0.30;;;0.30;;
19621;SDS011;9958;33.196;-97.114;2023-11-21T02:38:47;0.70;;;0.60;;
19621;SDS011;9958;33.196;-97.114;2023-11-21T02:41:17;0.60;;;0.30;;
19621;SDS011;9958;33.196;-97.114;2023-11-21T02:43:45;0.25;;;0.25;;
19621;SDS011;9958;33.196;-97.114;2023-11-21T02:46:14;0.40;;;0.40;;
19621;SDS011;9958;33.196;-97.114;2023-11-21T02:48:42;0.47;;;0.40;;
19621;SDS011;9958;33.196;-97.114;2023-11-21T02:51:10;0.50;;;0.40;;
19621;SDS011;9958;33.196;-97.114;2023-11-21T02:53:39;0.32;;;0.30;;
19621;SDS011;9958;33.196;-97.114;2023-11-21T02:56:07;0.40;;;0.40;;
19621;SDS011;9958;33.196;-97.114;2023-11-21T02:58:37;0.50;;;0.50;;
19621;SDS011;9958;33.196;-97.114;2023-11-21T03:01:08;0.38;;;0.38;;
19621;SDS011;9958;33.196;-97.114;2023-11-21T03:03:37;0.40;;;0.40;;
19621;SDS011;9958;33.196;-97.114;2023-11-21T03:06:07;0.57;;;0.57;;
19621;SDS011;9958;33.196;-97.114;2023-11-21T03:08:35;0.40;;;0.40;;
19621;SDS011;9958;33.196;-97.114;2023-11-21T03:11:04;0.40;;;0.40;;
19621;SDS011;9958;33.196;-97.114;2023-11-21T03:13:32;0.40;;;0.40;;
19621;SDS011;9958;33.196;-97.114;2023-11-21T03:16:02;0.40;;;0.40;;
19621;SDS011;9958;33.196;-97.114;2023-11-21T03:18:31;0.38;;;0.38;;
19621;SDS011;9958;33.196;-97.114;2023-11-21T03:20:59;0.65;;;0.65;;
19621;SDS011;9958;33.196;-97.114;2023-11-21T03:23:28;0.50;;;0.50;;
19621;SDS011;9958;33.196;-97.114;2023-11-21T03:25:56;0.43;;;0.43;;
19621;SDS011;9958;33.196;-97.114;2023-11-21T03:28:25;0.40;;;0.40;;
19621;SDS011;9958;33.196;-97.114;2023-11-21T03:30:53;0.30;;;0.30;;
19621;SDS011;9958;33.196;-97.114;2023-11-21T03:33:23;0.40;;;0.40;;
19621;SDS011;9958;33.196;-97.114;2023-11-21T03:35:52;0.60;;;0.60;;
19621;SDS011;9958;33.196;-97.114;2023-11-21T03:38:20;0.40;;;0.40;;
19621;SDS011;9958;33.196;-97.114;2023-11-21T03:40:49;0.50;;;0.50;;
19621;SDS011;9958;33.196;-97.114;2023-11-21T03:43:17;0.40;;;0.40;;
19621;SDS011;9958;33.196;-97.114;2023-11-21T03:45:45;0.32;;;0.32;;
19621;SDS011;9958;33.196;-97.114;2023-11-21T03:48:14;0.50;;;0.47;;
19621;SDS011;9958;33.196;-97.114;2023-11-21T03:50:44;0.85;;;0.47;;
19621;SDS011;9958;33.196;-97.114;2023-11-21T03:53:12;0.68;;;0.60;;
19621;SDS011;9958;33.196;-97.114;2023-11-21T03:55:41;0.50;;;0.50;;
19621;SDS011;9958;33.196;-97.114;2023-11-21T03:58:09;0.57;;;0.57;;
19621;SDS011;9958;33.196;-97.114;2023-11-21T04:00:38;0.50;;;0.50;;
19621;SDS011;9958;33.196;-97.114;2023-11-21T04:03:06;0.52;;;0.52;;
19621;SDS011;9958;33.196;-97.114;2023-11-21T04:05:34;0.55;;;0.55;;
19621;SDS011;9958;33.196;-97.114;2023-11-21T04:08:04;0.50;;;0.50;;
19621;SDS011;9958;33.196;-97.114;2023-11-21T04:10:33;0.60;;;0.60;;
19621;SDS011;9958;33.196;-97.114;2023-11-21T04:13:01;0.65;;;0.65;;
19621;SDS011;9958;33.196;-97.114;2023-11-21T04:15:30;0.47;;;0.47;;
19621;SDS011;9958;33.196;-97.114;2023-11-21T04:17:59;0.50;;;0.50;;
19621;SDS011;9958;33.196;-97.114;2023-11-21T04:20:27;0.52;;;0.52;;
19621;SDS011;9958;33.196;-97.114;2023-11-21T04:22:55;0.45;;;0.45;;
19621;SDS011;9958;33.196;-97.114;2023-11-21T04:25:25;0.50;;;0.50;;
19621;SDS011;9958;33.196;-97.114;2023-11-21T04:27:54;0.65;;;0.65;;
19621;SDS011;9958;33.196;-97.114;2023-11-21T04:30:22;0.63;;;0.63;;
19621;SDS011;9958;33.196;-97.114;2023-11-21T04:32:50;0.52;;;0.52;;
19621;SDS011;9958;33.196;-97.114;2023-11-21T04:35:19;0.80;;;0.80;;
19621;SDS011;9958;33.196;-97.114;2023-11-21T04:37:47;0.75;;;0.75;;
19621;SDS011;9958;33.196;-97.114;2023-11-21T04:40:16;0.75;;;0.75;;
19621;SDS011;9958;33.196;-97.114;2023-11-21T04:42:47;0.65;;;0.65;;
19621;SDS011;9958;33.196;-97.114;2023-11-21T04:45:16;0.60;;;0.60;;
19621;SDS011;9958;33.196;-97.114;2023-11-21T04:47:44;0.55;;;0.55;;
19621;SDS011;9958;33.196;-97.114;2023-11-21T04:50:12;0.70;;;0.70;;
19621;SDS011;9958;33.196;-97.114;2023-11-21T04:52:41;0.77;;;0.77;;
19621;SDS011;9958;33.196;-97.114;2023-11-21T04:55:09;0.60;;;0.60;;
19621;SDS011;9958;33.196;-97.114;2023-11-21T04:57:37;0.68;;;0.68;;
19621;SDS011;9958;33.196;-97.114;2023-11-21T05:00:09;0.63;;;0.63;;
19621;SDS011;9958;33.196;-97.114;2023-11-21T05:02:38;1.13;;;0.52;;
19621;SDS011;9958;33.196;-97.114;2023-11-21T05:05:07;0.52;;;0.52;;
19621;SDS011;9958;33.196;-97.114;2023-11-21T05:07:36;0.95;;;0.73;;
19621;SDS011;9958;33.196;-97.114;2023-11-21T05:10:05;0.60;;;0.60;;
19621;SDS011;9958;33.196;-97.114;2023-11-21T05:12:36;0.68;;;0.68;;
19621;SDS011;9958;33.196;-97.114;2023-11-21T05:15:05;1.05;;;0.73;;
19621;SDS011;9958;33.196;-97.114;2023-11-21T05:17:38;1.10;;;0.90;;
19621;SDS011;9958;33.196;-97.114;2023-11-21T05:20:08;0.60;;;0.60;;
19621;SDS011;9958;33.196;-97.114;2023-11-21T05:22:38;0.43;;;0.43;;
19621;SDS011;9958;33.196;-97.114;2023-11-21T05:25:08;0.45;;;0.45;;
19621;SDS011;9958;33.196;-97.114;2023-11-21T05:27:36;0.60;;;0.60;;
19621;SDS011;9958;33.196;-97.114;2023-11-21T05:30:05;1.35;;;0.70;;
19621;SDS011;9958;33.196;-97.114;2023-11-21T05:32:39;0.95;;;0.90;;
19621;SDS011;9958;33.196;-97.114;2023-11-21T05:35:09;0.50;;;0.50;;
19621;SDS011;9958;33.196;-97.114;2023-11-21T05:37:41;4.65;;;0.63;;
19621;SDS011;9958;33.196;-97.114;2023-11-21T05:40:09;0.70;;;0.70;;
19621;SDS011;9958;33.196;-97.114;2023-11-21T05:42:39;0.40;;;0.40;;
19621;SDS011;9958;33.196;-97.114;2023-11-21T05:45:07;1.35;;;0.45;;
19621;SDS011;9958;33.196;-97.114;2023-11-21T05:47:37;0.63;;;0.60;;
19621;SDS011;9958;33.196;-97.114;2023-11-21T05:50:08;0.50;;;0.50;;
19621;SDS011;9958;33.196;-97.114;2023-11-21T05:52:37;0.55;;;0.40;;
19621;SDS011;9958;33.196;-97.114;2023-11-21T05:55:06;0.38;;;0.38;;
19621;SDS011;9958;33.196;-97.114;2023-11-21T05:57:35;0.35;;;0.35;;
19621;SDS011;9958;33.196;-97.114;2023-11-21T06:00:04;0.65;;;0.65;;
19621;SDS011;9958;33.196;-97.114;2023-11-21T06:02:38;0.50;;;0.50;;
19621;SDS011;9958;33.196;-97.114;2023-11-21T06:05:07;0.68;;;0.50;;
19621;SDS011;9958;33.196;-97.114;2023-11-21T06:07:36;0.47;;;0.47;;
19621;SDS011;9958;33.196;-97.114;2023-11-21T06:10:05;0.20;;;0.20;;
19621;SDS011;9958;33.196;-97.114;2023-11-21T06:12:36;0.63;;;0.30;;
19621;SDS011;9958;33.196;-97.114;2023-11-21T06:15:06;2.60;;;0.40;;
19621;SDS011;9958;33.196;-97.114;2023-11-21T06:17:35;0.77;;;0.35;;
19621;SDS011;9958;33.196;-97.114;2023-11-21T06:20:06;0.38;;;0.38;;
19621;SDS011;9958;33.196;-97.114;2023-11-21T06:22:39;0.50;;;0.38;;
19621;SDS011;9958;33.196;-97.114;2023-11-21T06:25:08;0.20;;;0.20;;
19621;SDS011;9958;33.196;-97.114;2023-11-21T06:27:38;0.10;;;0.10;;
19621;SDS011;9958;33.196;-97.114;2023-11-21T06:30:08;0.30;;;0.30;;
19621;SDS011;9958;33.196;-97.114;2023-11-21T06:32:37;2.83;;;0.30;;
19621;SDS011;9958;33.196;-97.114;2023-11-21T06:35:08;0.35;;;0.30;;
19621;SDS011;9958;33.196;-97.114;2023-11-21T06:37:37;0.57;;;0.35;;
19621;SDS011;9958;33.196;-97.114;2023-11-21T06:40:06;0.75;;;0.25;;
19621;SDS011;9958;33.196;-97.114;2023-11-21T06:42:35;0.30;;;0.30;;
19621;SDS011;9958;33.196;-97.114;2023-11-21T06:45:05;0.98;;;0.63;;
19621;SDS011;9958;33.196;-97.114;2023-11-21T06:47:36;0.63;;;0.63;;
19621;SDS011;9958;33.196;-97.114;2023-11-21T06:50:05;0.40;;;0.40;;
19621;SDS011;9958;33.196;-97.114;2023-11-21T06:52:36;0.60;;;0.60;;
19621;SDS011;9958;33.196;-97.114;2023-11-21T06:55:04;0.73;;;0.40;;
19621;SDS011;9958;33.196;-97.114;2023-11-21T06:57:34;0.40;;;0.40;;
19621;SDS011;9958;33.196;-97.114;2023-11-21T07:00:02;1.02;;;0.50;;
19621;SDS011;9958;33.196;-97.114;2023-11-21T07:02:34;0.30;;;0.30;;
19621;SDS011;9958;33.196;-97.114;2023-11-21T07:05:02;0.35;;;0.35;;
19621;SDS011;9958;33.196;-97.114;2023-11-21T07:07:33;0.30;;;0.30;;
19621;SDS011;9958;33.196;-97.114;2023-11-21T07:10:02;0.65;;;0.65;;
19621;SDS011;9958;33.196;-97.114;2023-11-21T07:12:31;0.50;;;0.50;;
19621;SDS011;9958;33.196;-97.114;2023-11-21T07:15:00;0.47;;;0.47;;
19621;SDS011;9958;33.196;-97.114;2023-11-21T07:17:30;4.38;;;0.50;;
19621;SDS011;9958;33.196;-97.114;2023-11-21T07:20:00;1.80;;;0.80;;
19621;SDS011;9958;33.196;-97.114;2023-11-21T07:22:29;0.50;;;0.50;;
19621;SDS011;9958;33.196;-97.114;2023-11-21T07:24:59;0.70;;;0.70;;
19621;SDS011;9958;33.196;-97.114;2023-11-21T07:27:27;0.60;;;0.60;;
19621;SDS011;9958;33.196;-97.114;2023-11-21T07:29:55;0.93;;;0.90;;
19621;SDS011;9958;33.196;-97.114;2023-11-21T07:32:24;0.70;;;0.70;;
19621;SDS011;9958;33.196;-97.114;2023-11-21T07:34:52;0.73;;;0.68;;
19621;SDS011;9958;33.196;-97.114;2023-11-21T07:37:22;3.83;;;0.73;;
19621;SDS011;9958;33.196;-97.114;2023-11-21T07:39:51;0.57;;;0.57;;
19621;SDS011;9958;33.196;-97.114;2023-11-21T07:42:23;1.23;;;0.77;;
19621;SDS011;9958;33.196;-97.114;2023-11-21T07:44:52;0.70;;;0.70;;
19621;SDS011;9958;33.196;-97.114;2023-11-21T07:47:21;0.70;;;0.70;;
19621;SDS011;9958;33.196;-97.114;2023-11-21T07:49:52;0.60;;;0.60;;
19621;SDS011;9958;33.196;-97.114;2023-11-21T07:52:21;0.60;;;0.60;;
19621;SDS011;9958;33.196;-97.114;2023-11-21T07:54:49;0.98;;;0.98;;
19621;SDS011;9958;33.196;-97.114;2023-11-21T07:57:18;2.88;;;0.90;;
19621;SDS011;9958;33.196;-97.114;2023-11-21T07:59:48;1.60;;;0.75;;
19621;SDS011;9958;33.196;-97.114;2023-11-21T08:02:19;0.70;;;0.70;;
19621;SDS011;9958;33.196;-97.114;2023-11-21T08:04:47;1.25;;;0.80;;
19621;SDS011;9958;33.196;-97.114;2023-11-21T08:07:16;0.77;;;0.77;;
19621;SDS011;9958;33.196;-97.114;2023-11-21T08:09:45;1.05;;;0.95;;
19621;SDS011;9958;33.196;-97.114;2023-11-21T08:12:15;1.00;;;0.80;;
19621;SDS011;9958;33.196;-97.114;2023-11-21T08:14:43;0.60;;;0.60;;
19621;SDS011;9958;33.196;-97.114;2023-11-21T08:17:13;0.60;;;0.60;;
19621;SDS011;9958;33.196;-97.114;2023-11-21T08:19:42;0.50;;;0.50;;
19621;SDS011;9958;33.196;-97.114;2023-11-21T08:22:10;0.57;;;0.57;;
19621;SDS011;9958;33.196;-97.114;2023-11-21T08:24:38;0.70;;;0.70;;
19621;SDS011;9958;33.196;-97.114;2023-11-21T08:27:06;0.60;;;0.60;;
19621;SDS011;9958;33.196;-97.114;2023-11-21T08:29:35;0.70;;;0.70;;
19621;SDS011;9958;33.196;-97.114;2023-11-21T08:32:03;0.60;;;0.60;;
19621;SDS011;9958;33.196;-97.114;2023-11-21T08:34:34;0.63;;;0.63;;
19621;SDS011;9958;33.196;-97.114;2023-11-21T08:37:03;0.60;;;0.60;;
19621;SDS011;9958;33.196;-97.114;2023-11-21T08:39:31;0.70;;;0.70;;
19621;SDS011;9958;33.196;-97.114;2023-11-21T08:41:59;0.70;;;0.70;;
19621;SDS011;9958;33.196;-97.114;2023-11-21T08:44:28;2.72;;;0.60;;
19621;SDS011;9958;33.196;-97.114;2023-11-21T08:46:57;0.75;;;0.75;;
19621;SDS011;9958;33.196;-97.114;2023-11-21T08:49:25;0.68;;;0.68;;
19621;SDS011;9958;33.196;-97.114;2023-11-21T08:51:56;0.70;;;0.70;;
19621;SDS011;9958;33.196;-97.114;2023-11-21T08:54:25;0.50;;;0.50;;
19621;SDS011;9958;33.196;-97.114;2023-11-21T08:56:53;0.73;;;0.73;;
19621;SDS011;9958;33.196;-97.114;2023-11-21T08:59:23;0.70;;;0.70;;
19621;SDS011;9958;33.196;-97.114;2023-11-21T09:01:52;0.43;;;0.43;;
19621;SDS011;9958;33.196;-97.114;2023-11-21T09:04:20;0.88;;;0.68;;
19621;SDS011;9958;33.196;-97.114;2023-11-21T09:06:48;0.75;;;0.75;;
19621;SDS011;9958;33.196;-97.114;2023-11-21T09:09:18;0.60;;;0.60;;
19621;SDS011;9958;33.196;-97.114;2023-11-21T09:11:46;0.73;;;0.73;;
19621;SDS011;9958;33.196;-97.114;2023-11-21T09:14:15;1.13;;;0.90;;
19621;SDS011;9958;33.196;-97.114;2023-11-21T09:16:43;0.80;;;0.80;;
19621;SDS011;9958;33.196;-97.114;2023-11-21T09:19:12;0.80;;;0.80;;
19621;SDS011;9958;33.196;-97.114;2023-11-21T09:21:41;1.13;;;1.02;;
19621;SDS011;9958;33.196;-97.114;2023-11-21T09:24:09;0.50;;;0.50;;
19621;SDS011;9958;33.196;-97.114;2023-11-21T09:26:39;0.88;;;0.80;;
19621;SDS011;9958;33.196;-97.114;2023-11-21T09:29:07;0.88;;;0.70;;
19621;SDS011;9958;33.196;-97.114;2023-11-21T09:31:36;0.70;;;0.70;;
19621;SDS011;9958;33.196;-97.114;2023-11-21T09:34:04;0.65;;;0.65;;
19621;SDS011;9958;33.196;-97.114;2023-11-21T09:36:32;0.60;;;0.60;;
19621;SDS011;9958;33.196;-97.114;2023-11-21T09:39:01;0.70;;;0.70;;
19621;SDS011;9958;33.196;-97.114;2023-11-21T09:41:32;2.53;;;0.90;;
19621;SDS011;9958;33.196;-97.114;2023-11-21T09:44:09;0.77;;;0.77;;
19621;SDS011;9958;33.196;-97.114;2023-11-21T09:46:41;1.20;;;1.10;;
19621;SDS011;9958;33.196;-97.114;2023-11-21T09:49:10;1.05;;;0.82;;
19621;SDS011;9958;33.196;-97.114;2023-11-21T09:51:39;3.10;;;1.35;;
19621;SDS011;9958;33.196;-97.114;2023-11-21T09:54:10;1.40;;;1.30;;
19621;SDS011;9958;33.196;-97.114;2023-11-21T09:56:40;1.85;;;1.17;;
19621;SDS011;9958;33.196;-97.114;2023-11-21T09:59:13;1.25;;;1.15;;
19621;SDS011;9958;33.196;-97.114;2023-11-21T10:01:42;0.90;;;0.90;;
19621;SDS011;9958;33.196;-97.114;2023-11-21T10:04:12;0.73;;;0.73;;
19621;SDS011;9958;33.196;-97.114;2023-11-21T10:06:41;0.77;;;0.60;;
19621;SDS011;9958;33.196;-97.114;2023-11-21T10:09:11;0.88;;;0.80;;
19621;SDS011;9958;33.196;-97.114;2023-11-21T10:11:41;1.55;;;0.80;;
19621;SDS011;9958;33.196;-97.114;2023-11-21T10:14:12;0.43;;;0.43;;
19621;SDS011;9958;33.196;-97.114;2023-11-21T10:16:41;0.50;;;0.50;;
19621;SDS011;9958;33.196;-97.114;2023-11-21T10:19:12;0.70;;;0.70;;
19621;SDS011;9958;33.196;-97.114;2023-11-21T10:21:41;0.55;;;0.55;;
19621;SDS011;9958;33.196;-97.114;2023-11-21T10:24:10;2.10;;;0.68;;
19621;SDS011;9958;33.196;-97.114;2023-11-21T10:26:39;0.90;;;0.90;;
19621;SDS011;9958;33.196;-97.114;2023-11-21T10:29:07;0.80;;;0.80;;
19621;SDS011;9958;33.196;-97.114;2023-11-21T10:31:39;0.60;;;0.60;;
19621;SDS011;9958;33.196;-97.114;2023-11-21T10:34:13;0.70;;;0.70;;
19621;SDS011;9958;33.196;-97.114;2023-11-21T10:36:43;0.90;;;0.90;;
19621;SDS011;9958;33.196;-97.114;2023-11-21T10:39:13;0.65;;;0.65;;
19621;SDS011;9958;33.196;-97.114;2023-11-21T10:41:44;0.70;;;0.70;;
19621;SDS011;9958;33.196;-97.114;2023-11-21T10:44:13;0.95;;;0.95;;
19621;SDS011;9958;33.196;-97.114;2023-11-21T10:46:48;0.68;;;0.68;;
19621;SDS011;9958;33.196;-97.114;2023-11-21T10:49:18;0.82;;;0.82;;
19621;SDS011;9958;33.196;-97.114;2023-11-21T10:51:46;0.90;;;0.90;;
19621;SDS011;9958;33.196;-97.114;2023-11-21T10:54:19;1.30;;;1.30;;
19621;SDS011;9958;33.196;-97.114;2023-11-21T10:56:48;0.93;;;0.93;;
19621;SDS011;9958;33.196;-97.114;2023-11-21T10:59:18;1.08;;;1.08;;
19621;SDS011;9958;33.196;-97.114;2023-11-21T11:01:52;1.33;;;1.00;;
19621;SDS011;9958;33.196;-97.114;2023-11-21T11:04:21;1.20;;;1.10;;
19621;SDS011;9958;33.196;-97.114;2023-11-21T11:06:54;2.25;;;1.13;;
19621;SDS011;9958;33.196;-97.114;2023-11-21T11:09:24;1.92;;;1.40;;
19621;SDS011;9958;33.196;-97.114;2023-11-21T11:11:53;1.00;;;1.00;;
19621;SDS011;9958;33.196;-97.114;2023-11-21T11:14:21;1.25;;;1.17;;
19621;SDS011;9958;33.196;-97.114;2023-11-21T11:16:53;1.15;;;1.05;;
19621;SDS011;9958;33.196;-97.114;2023-11-21T11:19:22;1.30;;;1.20;;
19621;SDS011;9958;33.196;-97.114;2023-11-21T11:21:53;1.40;;;1.30;;
19621;SDS011;9958;33.196;-97.114;2023-11-21T11:24:45;1.38;;;1.27;;
19621;SDS011;9958;33.196;-97.114;2023-11-21T11:27:28;1.55;;;1.45;;
19621;SDS011;9958;33.196;-97.114;2023-11-21T11:30:07;1.30;;;1.20;;
19621;SDS011;9958;33.196;-97.114;2023-11-21T11:32:48;1.40;;;1.30;;
19621;SDS011;9958;33.196;-97.114;2023-11-21T11:35:24;1.23;;;1.20;;
19621;SDS011;9958;33.196;-97.114;2023-11-21T11:37:59;1.40;;;1.30;;
19621;SDS011;9958;33.196;-97.114;2023-11-21T11:40:38;1.48;;;1.38;;
19621;SDS011;9958;33.196;-97.114;2023-11-21T11:43:07;1.75;;;1.50;;
19621;SDS011;9958;33.196;-97.114;2023-11-21T11:45:35;1.40;;;1.30;;
19621;SDS011;9958;33.196;-97.114;2023-11-21T11:48:10;1.40;;;1.30;;
19621;SDS011;9958;33.196;-97.114;2023-11-21T11:50:42;1.52;;;1.40;;
19621;SDS011;9958;33.196;-97.114;2023-11-21T11:53:33;1.67;;;1.58;;
19621;SDS011;9958;33.196;-97.114;2023-11-21T11:56:22;1.98;;;1.77;;
19621;SDS011;9958;33.196;-97.114;2023-11-21T11:58:53;1.38;;;1.27;;
19621;SDS011;9958;33.196;-97.114;2023-11-21T12:01:22;1.65;;;1.55;;
19621;SDS011;9958;33.196;-97.114;2023-11-21T12:06:57;1.67;;;1.58;;
19621;SDS011;9958;33.196;-97.114;2023-11-21T12:09:28;1.58;;;1.48;;
19621;SDS011;9958;33.196;-97.114;2023-11-21T12:11:58;1.35;;;1.27;;
19621;SDS011;9958;33.196;-97.114;2023-11-21T12:14:27;1.65;;;1.55;;
19621;SDS011;9958;33.196;-97.114;2023-11-21T12:16:55;1.63;;;1.52;;
19621;SDS011;9958;33.196;-97.114;2023-11-21T12:19:27;1.73;;;1.63;;
19621;SDS011;9958;33.196;-97.114;2023-11-21T12:21:55;2.60;;;1.95;;
19621;SDS011;9958;33.196;-97.114;2023-11-21T12:24:24;1.85;;;1.75;;
19621;SDS011;9958;33.196;-97.114;2023-11-21T12:26:54;2.30;;;2.10;;
19621;SDS011;9958;33.196;-97.114;2023-11-21T12:29:22;2.10;;;1.88;;
19621;SDS011;9958;33.196;-97.114;2023-11-21T12:31:51;2.20;;;2.00;;
19621;SDS011;9958;33.196;-97.114;2023-11-21T12:34:19;1.77;;;1.67;;
19621;SDS011;9958;33.196;-97.114;2023-11-21T12:36:50;4.03;;;2.03;;
19621;SDS011;9958;33.196;-97.114;2023-11-21T12:39:20;2.17;;;1.98;;
19621;SDS011;9958;33.196;-97.114;2023-11-21T12:41:48;2.15;;;1.95;;
19621;SDS011;9958;33.196;-97.114;2023-11-21T12:44:17;1.98;;;1.80;;
19621;SDS011;9958;33.196;-97.114;2023-11-21T12:46:45;2.40;;;2.20;;
19621;SDS011;9958;33.196;-97.114;2023-11-21T12:49:13;2.10;;;1.88;;
19621;SDS011;9958;33.196;-97.114;2023-11-21T12:51:44;3.25;;;2.17;;
19621;SDS011;9958;33.196;-97.114;2023-11-21T12:54:15;2.20;;;2.10;;
19621;SDS011;9958;33.196;-97.114;2023-11-21T12:56:45;2.17;;;2.00;;
19621;SDS011;9958;33.196;-97.114;2023-11-21T12:59:14;2.00;;;1.90;;
19621;SDS011;9958;33.196;-97.114;2023-11-21T13:01:43;2.45;;;2.20;;
19621;SDS011;9958;33.196;-97.114;2023-11-21T13:04:12;2.50;;;2.30;;
19621;SDS011;9958;33.196;-97.114;2023-11-21T13:06:40;2.35;;;2.15;;
19621;SDS011;9958;33.196;-97.114;2023-11-21T13:09:08;2.63;;;2.35;;
19621;SDS011;9958;33.196;-97.114;2023-11-21T13:11:40;2.38;;;2.17;;
19621;SDS011;9958;33.196;-97.114;2023-11-21T13:14:10;3.05;;;2.38;;
19621;SDS011;9958;33.196;-97.114;2023-11-21T13:16:39;2.38;;;2.03;;
19621;SDS011;9958;33.196;-97.114;2023-11-21T13:19:11;3.22;;;2.42;;
19621;SDS011;9958;33.196;-97.114;2023-11-21T13:21:40;2.38;;;2.17;;
19621;SDS011;9958;33.196;-97.114;2023-11-21T13:24:08;2.40;;;2.20;;
19621;SDS011;9958;33.196;-97.114;2023-11-21T13:26:37;2.72;;;2.22;;
19621;SDS011;9958;33.196;-97.114;2023-11-21T13:29:07;2.33;;;2.13;;
19621;SDS011;9958;33.196;-97.114;2023-11-21T13:31:38;2.72;;;2.22;;
19621;SDS011;9958;33.196;-97.114;2023-11-21T13:34:06;2.92;;;2.28;;
19621;SDS011;9958;33.196;-97.114;2023-11-21T13:36:35;2.45;;;2.25;;
19621;SDS011;9958;33.196;-97.114;2023-11-21T13:39:03;2.60;;;2.25;;
19621;SDS011;9958;33.196;-97.114;2023-11-21T13:41:33;2.00;;;1.90;;
19621;SDS011;9958;33.196;-97.114;2023-11-21T13:44:03;2.58;;;2.35;;
19621;SDS011;9958;33.196;-97.114;2023-11-21T13:46:43;3.00;;;2.45;;
19621;SDS011;9958;33.196;-97.114;2023-11-21T13:49:11;4.32;;;3.17;;
19621;SDS011;9958;33.196;-97.114;2023-11-21T13:51:41;6.78;;;2.80;;
19621;SDS011;9958;33.196;-97.114;2023-11-21T13:54:10;3.45;;;2.92;;
19621;SDS011;9958;33.196;-97.114;2023-11-21T13:56:38;3.50;;;2.92;;
19621;SDS011;9958;33.196;-97.114;2023-11-21T13:59:10;5.13;;;3.53;;
19621;SDS011;9958;33.196;-97.114;2023-11-21T14:01:47;5.20;;;3.97;;
19621;SDS011;9958;33.196;-97.114;2023-11-21T14:04:24;5.18;;;3.80;;
19621;SDS011;9958;33.196;-97.114;2023-11-21T14:07:12;4.13;;;3.60;;
19621;SDS011;9958;33.196;-97.114;2023-11-21T14:09:57;5.07;;;3.92;;
19621;SDS011;9958;33.196;-97.114;2023-11-21T14:12:26;4.97;;;4.05;;
19621;SDS011;9958;33.196;-97.114;2023-11-21T14:14:54;5.82;;;4.05;;
19621;SDS011;9958;33.196;-97.114;2023-11-21T14:17:24;5.35;;;4.43;;
19621;SDS011;9958;33.196;-97.114;2023-11-21T14:19:53;5.13;;;3.95;;
19621;SDS011;9958;33.196;-97.114;2023-11-21T14:22:21;5.03;;;4.10;;
19621;SDS011;9958;33.196;-97.114;2023-11-21T14:24:51;5.32;;;3.78;;
19621;SDS011;9958;33.196;-97.114;2023-11-21T14:27:21;5.45;;;4.10;;
19621;SDS011;9958;33.196;-97.114;2023-11-21T14:29:49;9.20;;;4.65;;
19621;SDS011;9958;33.196;-97.114;2023-11-21T14:32:18;6.07;;;3.25;;
19621;SDS011;9958;33.196;-97.114;2023-11-21T14:34:48;4.70;;;3.30;;
19621;SDS011;9958;33.196;-97.114;2023-11-21T14:37:16;4.65;;;3.55;;
19621;SDS011;9958;33.196;-97.114;2023-11-21T14:39:45;5.03;;;3.42;;
19621;SDS011;9958;33.196;-97.114;2023-11-21T14:42:15;5.18;;;3.53;;
19621;SDS011;9958;33.196;-97.114;2023-11-21T14:44:49;4.13;;;3.20;;
19621;SDS011;9958;33.196;-97.114;2023-11-21T14:47:18;4.78;;;3.53;;
19621;SDS011;9958;33.196;-97.114;2023-11-21T14:49:52;3.83;;;3.50;;
19621;SDS011;9958;33.196;-97.114;2023-11-21T14:52:22;5.43;;;3.72;;